K5BOU Weather Reports


Display with metric or nautical units.
time (UTC)temp
F
wind
direction
speed
MPH
gust
MPH
rain 1hr
in
rain 24hr
in
rain mn
in
humidity
%
barometer
mb
20240225183715 78 227 12.0 23.0 0.00 0.00 0.00 52 1018.3
20240225183214 78 144 9.0 16.0 0.00 0.00 0.00 55 1018.1
20240225182712 78 202 13.0 17.0 0.00 0.00 0.00 54 1018.6
20240225182211 78 166 11.0 27.0 0.00 0.00 0.00 54 1018.5
20240225181710 78 166 5.0 13.0 0.00 0.00 0.00 62 1018.6
20240225181209 78 206 6.0 14.0 0.00 0.00 0.00 60 1018.6
20240225180708 78 121 5.0 14.0 0.00 0.00 0.00 60 1018.8
20240225180204 78 203 7.0 13.0 0.00 0.00 0.00 60 1018.8
20240225175704 77 162 3.0 10.0 0.00 0.00 0.00 63 1018.9
20240225175205 77 208 12.0 16.0 0.00 0.00 0.00 61 1018.9
20240225174703 77 198 8.0 10.0 0.00 0.00 0.00 62 1018.9
20240225174202 77 221 8.0 11.0 0.00 0.00 0.00 62 1019.1
20240225173701 76 173 8.0 11.0 0.00 0.00 0.00 64 1019.4
20240225173159 76 188 8.0 13.0 0.00 0.00 0.00 63 1019.6
20240225172657 76 217 5.0 13.0 0.00 0.00 0.00 65 1019.6
20240225172157 75 212 11.0 16.0 0.00 0.00 0.00 64 1019.7
20240225171656 75 201 6.0 14.0 0.00 0.00 0.00 67 1019.7
20240225171157 75 199 7.0 13.0 0.00 0.00 0.00 68 1019.9
20240225170656 76 216 12.0 14.0 0.00 0.00 0.00 66 1019.9
20240225170154 75 209 7.0 15.0 0.00 0.00 0.00 67 1019.9
20240225165653 75 212 6.0 10.0 0.00 0.00 0.00 70 1019.8
20240225165152 75 157 7.0 13.0 0.00 0.00 0.00 69 1019.9
20240225150528 66 157 6.0 8.0 0.00 0.00 0.00 83 1020.2
20240225150027 66 182 5.0 8.0 0.00 0.00 0.00 84 1019.9
20240225145527 65 203 3.0 8.0 0.00 0.00 0.00 86 1020.1
20240225145026 65 202 4.0 7.0 0.00 0.00 0.00 86 1020.1
20240225144525 64 140 3.0 8.0 0.00 0.00 0.00 87 1020.0
20240225144022 64 190 5.0 7.0 0.00 0.00 0.00 88 1020.0
20240225143522 63 188 2.0 5.0 0.00 0.00 0.00 90 1019.7
20240225143021 62 172 3.0 6.0 0.00 0.00 0.00 91 1019.5
20240225142519 62 182 2.0 7.0 0.00 0.00 0.00 92 1019.6
20240225142018 61 150 3.0 3.0 0.00 0.00 0.00 93 1019.6
20240225141515 60 171 3.0 3.0 0.00 0.00 0.00 95 1019.4
20240225141014 59 172 2.0 3.0 0.00 0.00 0.00 96 1019.6
20240225140513 58 172 2.0 3.0 0.00 0.00 0.00 97 1019.4
20240225140011 57 184 3.0 3.0 0.00 0.00 0.00 98 1019.6
20240225135509 57 192 1.0 2.0 0.00 0.00 0.00 98 1019.6
20240225135008 56 180 2.0 2.0 0.00 0.00 0.00 99 1019.5
20240225134507 55 192 0.0 1.0 0.00 0.00 0.00 99 1019.3
20240225134006 55 197 0.0 0.0 0.00 0.00 0.00 99 1019.4
20240225133505 55 197 0.0 0.0 0.00 0.00 0.00 99 1019.4
20240225133005 54 202 0.0 0.0 0.00 0.00 0.00 99 1019.7
20240225132503 54 193 0.0 0.0 0.00 0.00 0.00 99 1019.6
20240225132003 53 193 0.0 0.0 0.00 0.00 0.00 99 1019.4
20240225131501 52 188 0.0 0.0 0.00 0.00 0.00 99 1019.2
20240225131000 51 194 0.0 0.0 0.00 0.00 0.00 99 1019.3
20240225130459 52 201 0.0 0.0 0.00 0.00 0.00 99 1019.2
20240225125957 52 201 0.0 0.0 0.00 0.00 0.00 99 1019.1
20240225125454 52 197 0.0 0.0 0.00 0.00 0.00 99 1019.2
20240225124953 52 201 0.0 0.0 0.00 0.00 0.00 99 1019.2
20240225124451 51 204 0.0 0.0 0.00 0.00 0.00 99 1019.2
20240225123949 51 204 0.0 0.0 0.00 0.00 0.00 99 1018.9
20240225123446 52 203 0.0 0.0 0.00 0.00 0.00 99 1019.1
20240225122946 52 200 0.0 0.0 0.00 0.00 0.00 99 1018.9
20240225122445 52 203 0.0 0.0 0.00 0.00 0.00 99 1019.0
20240225121943 52 197 0.0 0.0 0.00 0.00 0.00 99 1019.1
20240225121442 51 206 0.0 0.0 0.00 0.00 0.00 99 1019.1
20240225120941 52 203 0.0 0.0 0.00 0.00 0.00 99 1019.2
20240225120439 52 202 0.0 0.0 0.00 0.00 0.00 99 1019.2
20240225115937 52 195 0.0 0.0 0.00 0.00 0.00 99 1019.1
20240225115436 52 198 0.0 0.0 0.00 0.00 0.00 99 1019.3
20240225114936 52 203 0.0 0.0 0.00 0.00 0.00 99 1019.1
20240225114435 51 193 0.0 0.0 0.00 0.00 0.00 99 1019.0
20240225113934 51 200 0.0 0.0 0.00 0.00 0.00 99 1019.0
20240225113434 51 203 0.0 0.0 0.00 0.00 0.00 99 1019.0
20240225112931 51 203 0.0 0.0 0.00 0.00 0.00 99 1019.1
20240225112430 51 199 0.0 0.0 0.00 0.00 0.00 99 1019.0
20240225111929 51 204 0.0 0.0 0.00 0.00 0.00 99 1019.1
20240225111427 51 204 0.0 0.0 0.00 0.00 0.00 99 1019.0
20240225110926 52 202 0.0 0.0 0.00 0.00 0.00 99 1019.1
20240225110426 52 199 0.0 1.0 0.00 0.00 0.00 99 1018.9
20240225105924 52 196 0.0 0.0 0.00 0.00 0.00 99 1019.0
20240225105423 52 201 0.0 1.0 0.00 0.00 0.00 99 1019.0
20240225104922 52 197 1.0 1.0 0.00 0.00 0.00 99 1019.2
20240225104421 52 196 0.0 1.0 0.00 0.00 0.00 99 1019.0
20240225103919 52 191 1.0 1.0 0.00 0.00 0.00 99 1019.0
20240225103419 52 186 1.0 2.0 0.00 0.00 0.00 99 1019.0
20240225102917 51 185 2.0 2.0 0.00 0.00 0.00 99 1019.1
20240225102416 51 204 0.0 0.0 0.00 0.00 0.00 99 1019.0
20240225101915 51 197 0.0 0.0 0.00 0.00 0.00 99 1019.1
20240225101413 51 200 0.0 0.0 0.00 0.00 0.00 99 1019.0
20240225100913 51 202 0.0 0.0 0.00 0.00 0.00 99 1018.9
20240225100411 51 203 0.0 0.0 0.00 0.00 0.00 99 1019.2
20240225095911 51 204 0.0 0.0 0.00 0.00 0.00 99 1019.1
20240225095410 51 204 0.0 0.0 0.00 0.00 0.00 98 1019.3
20240225094910 51 204 0.0 0.0 0.00 0.00 0.00 98 1019.2
20240225094407 52 202 0.0 0.0 0.00 0.00 0.00 98 1019.2
20240225093906 52 202 0.0 0.0 0.00 0.00 0.00 98 1019.2
20240225093405 52 202 0.0 0.0 0.00 0.00 0.00 98 1019.2
20240225092904 52 202 0.0 0.0 0.00 0.00 0.00 98 1019.3
20240225092404 52 204 0.0 0.0 0.00 0.00 0.00 97 1019.2
20240225091903 53 202 0.0 0.0 0.00 0.00 0.00 97 1019.2
20240225091402 52 204 0.0 0.0 0.00 0.00 0.00 96 1019.1
20240225090902 53 204 0.0 0.0 0.00 0.00 0.00 96 1019.2
20240225090400 53 194 1.0 1.0 0.00 0.00 0.00 96 1019.2
20240225085859 53 197 0.0 0.0 0.00 0.00 0.00 97 1019.3
20240225085356 53 204 0.0 0.0 0.00 0.00 0.00 96 1019.3
20240225084855 53 199 0.0 0.0 0.00 0.00 0.00 96 1019.5
20240225084351 53 201 0.0 1.0 0.00 0.00 0.00 96 1019.3
20240225083851 53 204 0.0 0.0 0.00 0.00 0.00 95 1019.3
20240225083348 54 202 0.0 0.0 0.00 0.00 0.00 95 1019.4
20240225082848 54 196 0.0 1.0 0.00 0.00 0.00 95 1019.2
20240225082345 54 201 0.0 1.0 0.00 0.00 0.00 94 1019.5
20240225081845 54 201 0.0 0.0 0.00 0.00 0.00 93 1019.6
20240225081344 54 199 0.0 0.0 0.00 0.00 0.00 93 1019.7
20240225080843 55 201 0.0 0.0 0.00 0.00 0.00 91 1019.7
20240225080341 55 201 0.0 0.0 0.00 0.00 0.00 91 1019.9
20240225075839 56 194 0.0 1.0 0.00 0.00 0.00 91 1019.9
20240225075338 56 187 1.0 1.0 0.00 0.00 0.00 92 1019.8
20240225074836 56 201 0.0 0.0 0.00 0.00 0.00 91 1020.0
20240225074329 56 197 0.0 0.0 0.00 0.00 0.00 91 1019.9
20240225073828 56 196 0.0 1.0 0.00 0.00 0.00 91 1020.1
20240225073328 56 202 0.0 1.0 0.00 0.00 0.00 90 1020.1
20240225072827 57 201 1.0 1.0 0.00 0.00 0.00 89 1020.1
20240225072327 57 199 1.0 2.0 0.00 0.00 0.00 89 1019.9
20240225071825 57 199 1.0 1.0 0.00 0.00 0.00 89 1020.1
20240225071324 57 213 1.0 1.0 0.00 0.00 0.00 89 1020.2
20240225070823 57 204 1.0 1.0 0.00 0.00 0.00 88 1020.2
20240225070321 57 206 0.0 2.0 0.00 0.00 0.00 87 1020.2
20240225065820 57 201 1.0 1.0 0.00 0.00 0.00 88 1020.3
20240225065320 57 202 1.0 1.0 0.00 0.00 0.00 88 1020.1
20240225064820 57 202 1.0 1.0 0.00 0.00 0.00 87 1020.2
20240225064318 57 210 2.0 3.0 0.00 0.00 0.00 87 1020.2
20240225063816 56 210 2.0 3.0 0.00 0.00 0.00 88 1020.3
20240225063315 57 195 2.0 2.0 0.00 0.00 0.00 87 1020.2
20240225062813 56 205 1.0 3.0 0.00 0.00 0.00 87 1020.4
20240225062312 56 201 1.0 2.0 0.00 0.00 0.00 87 1020.3
20240225061811 56 201 1.0 2.0 0.00 0.00 0.00 87 1020.4
20240225061310 56 198 0.0 1.0 0.00 0.00 0.00 86 1020.4
20240225060809 57 201 0.0 1.0 0.00 0.00 0.00 86 1020.3
20240225060307 57 198 0.0 1.0 0.00 0.00 0.00 86 1020.6
20240225055807 56 190 1.0 2.0 0.00 0.00 0.00 86 1020.5
20240225055305 56 196 1.0 2.0 0.00 0.00 0.00 86 1020.5
20240225054801 56 199 1.0 1.0 0.00 0.00 0.00 85 1020.5
20240225054300 56 203 1.0 1.0 0.00 0.00 0.00 85 1020.5
20240225053800 56 200 0.0 1.0 0.00 0.00 0.00 85 1020.7
20240225053259 56 201 0.0 0.0 0.00 0.00 0.00 85 1020.6
20240225052758 56 191 1.0 1.0 0.00 0.00 0.00 85 1020.7
20240225052256 56 202 0.0 0.0 0.00 0.00 0.00 85 1020.5
20240225051755 56 207 0.0 0.0 0.00 0.00 0.00 82 1020.6
20240225051252 57 207 0.0 0.0 0.00 0.00 0.00 81 1020.7
20240225050752 58 201 0.0 0.0 0.00 0.00 0.00 81 1020.6
20240225050250 58 191 1.0 1.0 0.00 0.00 0.00 81 1020.7
20240225045747 58 190 1.0 1.0 0.00 0.00 0.00 80 1020.8
20240225045245 59 187 1.0 2.0 0.00 0.00 0.00 79 1020.6
20240225044744 59 196 0.0 1.0 0.00 0.00 0.00 78 1020.6
20240225044242 59 191 1.0 2.0 0.00 0.00 0.00 77 1020.8
20240225043740 59 202 0.0 2.0 0.00 0.00 0.00 76 1020.7
20240225043239 59 199 0.0 1.0 0.00 0.00 0.00 75 1020.8
20240225042733 60 196 1.0 2.0 0.00 0.00 0.00 75 1021.0
20240225042234 60 196 1.0 2.0 0.00 0.00 0.00 74 1020.8
20240225041733 60 199 0.0 2.0 0.00 0.00 0.00 74 1021.0
20240225041231 60 193 1.0 2.0 0.00 0.00 0.00 73 1021.0
20240225040731 60 196 1.0 2.0 0.00 0.00 0.00 73 1020.8
20240225040229 60 196 1.0 1.0 0.00 0.00 0.00 72 1021.0
20240225035728 60 198 0.0 2.0 0.00 0.00 0.00 71 1020.9
20240225035227 61 201 1.0 2.0 0.00 0.00 0.00 70 1021.1
20240225034727 61 203 1.0 3.0 0.00 0.00 0.00 69 1020.8
20240225034226 61 196 2.0 2.0 0.00 0.00 0.00 68 1021.0
20240225033727 62 195 2.0 6.0 0.00 0.00 0.00 67 1020.9
20240225033225 62 190 3.0 6.0 0.00 0.00 0.00 66 1021.0
20240225032724 62 213 3.0 3.0 0.00 0.00 0.00 66 1021.0
20240225032224 62 203 3.0 5.0 0.00 0.00 0.00 65 1021.0
20240225031722 62 204 3.0 3.0 0.00 0.00 0.00 64 1021.1
20240225031222 62 197 2.0 3.0 0.00 0.00 0.00 64 1020.9
20240225030721 62 202 2.0 5.0 0.00 0.00 0.00 63 1020.7
20240225030219 62 201 2.0 3.0 0.00 0.00 0.00 62 1020.9
20240225025719 63 211 6.0 7.0 0.00 0.00 0.00 60 1020.8
20240225025218 62 210 3.0 6.0 0.00 0.00 0.00 59 1020.9
20240225024717 62 200 2.0 3.0 0.00 0.00 0.00 58 1020.9
20240225024216 63 199 2.0 3.0 0.00 0.00 0.00 58 1020.7
20240225023716 63 195 3.0 5.0 0.00 0.00 0.00 57 1020.7
20240225023215 63 134 3.0 5.0 0.00 0.00 0.00 56 1020.6
20240225022714 63 202 3.0 5.0 0.00 0.00 0.00 56 1020.6
20240225022212 63 192 2.0 5.0 0.00 0.00 0.00 55 1020.7
20240225021712 63 180 1.0 3.0 0.00 0.00 0.00 55 1020.8
20240225021211 64 200 1.0 2.0 0.00 0.00 0.00 53 1020.6
20240225020710 64 190 2.0 5.0 0.00 0.00 0.00 52 1020.5
20240225020208 64 191 2.0 5.0 0.00 0.00 0.00 52 1020.4
20240225015708 65 183 2.0 6.0 0.00 0.00 0.00 50 1020.4
20240225015206 65 202 3.0 8.0 0.00 0.00 0.00 48 1020.4
20240225014705 65 207 3.0 5.0 0.00 0.00 0.00 48 1020.5
20240225014204 65 170 3.0 5.0 0.00 0.00 0.00 47 1020.4
20240225013704 66 177 2.0 5.0 0.00 0.00 0.00 46 1020.3
20240225013202 66 197 2.0 3.0 0.00 0.00 0.00 45 1020.4
20240225012702 67 183 3.0 3.0 0.00 0.00 0.00 44 1020.3
20240225012201 67 200 5.0 6.0 0.00 0.00 0.00 43 1020.2
20240225011659 68 200 2.0 6.0 0.00 0.00 0.00 43 1020.1
20240225011158 68 209 4.0 6.0 0.00 0.00 0.00 41 1020.1
20240225010657 69 203 3.0 7.0 0.00 0.00 0.00 42 1020.2
20240225010156 69 213 4.0 10.0 0.00 0.00 0.00 41 1020.0
20240225005656 69 207 3.0 6.0 0.00 0.00 0.00 42 1019.8
20240225005154 69 202 3.0 10.0 0.00 0.00 0.00 42 1019.8
20240225004652 69 193 3.0 7.0 0.00 0.00 0.00 42 1019.8
20240225004150 70 204 3.0 6.0 0.00 0.00 0.00 40 1019.7
20240225003649 68 208 6.0 7.0 0.00 0.00 0.00 41 1019.8
20240225003147 67 212 2.0 2.0 0.00 0.00 0.00 44 1019.7
20240225002646 69 203 0.0 1.0 0.00 0.00 0.00 42 1019.9
20240225002141 69 197 0.0 1.0 0.00 0.00 0.00 41 1019.6
20240225001640 69 202 0.0 0.0 0.00 0.00 0.00 41 1019.6
20240225001139 70 205 0.0 0.0 0.00 0.00 0.00 42 1019.8
20240225000637 72 207 0.0 1.0 0.00 0.00 0.00 42 1019.7
20240225000135 75 209 1.0 2.0 0.00 0.00 0.00 40 1019.6
20240224235634 76 203 0.0 0.0 0.00 0.00 0.00 34 1019.5
20240224235132 78 207 0.0 0.0 0.00 0.00 0.00 31 1019.4
20240224234631 78 210 0.0 1.0 0.00 0.00 0.00 31 1019.4
20240224234115 79 210 0.0 1.0 0.00 0.00 0.00 27 1019.6
20240224233613 80 212 0.0 0.0 0.00 0.00 0.00 29 1019.6
20240224233111 79 214 1.0 1.0 0.00 0.00 0.00 27 1019.4
20240224232611 79 210 1.0 2.0 0.00 0.00 0.00 29 1019.4
20240224232108 78 201 1.0 2.0 0.00 0.00 0.00 27 1019.4
20240224231607 80 211 1.0 3.0 0.00 0.00 0.00 32 1019.4
20240224231107 80 207 0.0 1.0 0.00 0.00 0.00 26 1019.5
20240224230605 80 206 1.0 1.0 0.00 0.00 0.00 27 1019.2
20240224230104 78 203 1.0 3.0 0.00 0.00 0.00 26 1019.8
20240224225604 78 193 2.0 5.0 0.00 0.00 0.00 28 1019.5
20240224225102 79 171 2.0 5.0 0.00 0.00 0.00 28 1019.4
20240224224601 79 206 4.0 5.0 0.00 0.00 0.00 27 1019.9
20240224224100 80 208 0.0 1.0 0.00 0.00 0.00 28 1019.5
20240224223557 81 203 1.0 1.0 0.00 0.00 0.00 27 1019.7
20240224223056 80 207 2.0 2.0 0.00 0.00 0.00 28 1019.6
20240224222554 80 217 3.0 3.0 0.00 0.00 0.00 26 1019.9
20240224222052 79 214 3.0 3.0 0.00 0.00 0.00 27 1019.9
20240224221551 78 305 4.0 7.0 0.00 0.00 0.00 30 1019.9
20240224221050 79 231 3.0 6.0 0.00 0.00 0.00 32 1020.0
20240224220551 78 149 2.0 8.0 0.00 0.00 0.00 28 1020.1
20240224220049 80 227 6.0 7.0 0.00 0.00 0.00 31 1019.9
20240224215545 78 217 4.0 8.0 0.00 0.00 0.00 30 1019.9
20240224215045 78 207 7.0 9.0 0.00 0.00 0.00 29 1019.9
20240224214543 79 200 5.0 7.0 0.00 0.00 0.00 30 1019.6
20240224214042 79 199 4.0 6.0 0.00 0.00 0.00 29 1020.1
20240224213541 79 182 4.0 7.0 0.00 0.00 0.00 31 1020.0
20240224213040 79 229 6.0 9.0 0.00 0.00 0.00 31 1020.1
20240224212536 80 215 6.0 7.0 0.00 0.00 0.00 29 1019.9
20240224212035 79 221 5.0 6.0 0.00 0.00 0.00 30 1020.1
20240224211534 80 229 4.0 6.0 0.00 0.00 0.00 28 1020.1
20240224211032 79 208 0.0 3.0 0.00 0.00 0.00 32 1020.0
20240224210529 80 247 5.0 6.0 0.00 0.00 0.00 30 1020.0
20240224210028 80 206 1.0 2.0 0.00 0.00 0.00 29 1020.0
20240224205527 78 205 0.0 3.0 0.00 0.00 0.00 29 1020.2
20240224205023 80 207 0.0 1.0 0.00 0.00 0.00 28 1020.2
20240224204519 79 209 1.0 6.0 0.00 0.00 0.00 28 1020.2
20240224204019 79 153 5.0 6.0 0.00 0.00 0.00 29 1020.3
20240224203516 78 210 2.0 6.0 0.00 0.00 0.00 30 1020.2
20240224203014 80 186 0.0 3.0 0.00 0.00 0.00 33 1020.4
20240224202513 79 44 2.0 5.0 0.00 0.00 0.00 28 1020.5
20240224202011 78 247 1.0 3.0 0.00 0.00 0.00 29 1020.4
20240224201510 78 306 3.0 6.0 0.00 0.00 0.00 31 1020.7
20240224201009 78 199 3.0 6.0 0.00 0.00 0.00 31 1020.6
20240224200508 80 255 2.0 3.0 0.00 0.00 0.00 34 1020.7
20240224200006 80 223 2.0 5.0 0.00 0.00 0.00 29 1020.9
20240224195504 78 168 2.0 5.0 0.00 0.00 0.00 27 1021.0
20240224195000 77 251 1.0 6.0 0.00 0.00 0.00 30 1020.9
20240224194459 78 253 5.0 7.0 0.00 0.00 0.00 31 1020.9
20240224193957 78 189 1.0 2.0 0.00 0.00 0.00 34 1021.0
20240224193454 79 218 2.0 3.0 0.00 0.00 0.00 31 1021.0
20240224192952 79 22 3.0 6.0 0.00 0.00 0.00 27 1020.9
20240224192447 78 215 3.0 6.0 0.00 0.00 0.00 29 1020.8
20240224191946 78 210 1.0 3.0 0.00 0.00 0.00 36 1021.1
20240224191445 79 200 3.0 7.0 0.00 0.00 0.00 29 1021.2
20240224190943 78 214 1.0 3.0 0.00 0.00 0.00 32 1021.4
20240224190441 78 177 3.0 7.0 0.00 0.00 0.00 32 1021.3
20240224185939 78 188 4.0 6.0 0.00 0.00 0.00 37 1021.4
20240224185439 77 194 4.0 7.0 0.00 0.00 0.00 30 1021.6
20240224184936 77 195 2.0 7.0 0.00 0.00 0.00 36 1021.7
20240224184435 77 210 3.0 3.0 0.00 0.00 0.00 34 1021.6